Nina — ICMG — position and weather

sailwx.info

Track history (hours):
 
Tides and Currents Weather Stations Pressure Air Temp Water Temp Dewpoint Dewpoint Depression Visibility Wind Speed Wind Dir Waves Ship Positions

Nina

Last reported at 2014-Dec-07 22:30 UTC. Time now 2014-Dec-18 12:33 UTC.
Position N 37°24' W 123°14'.
Warning: this ship's position is 10 days out of date.

Length 180 m; draft 10.6 m.

Type: Tanker. MMSI: 247239700.

Date/timePositionNaut miles runAvg speedWind from/ knotsBaromVisibWave heightAir tempDewpointWater temp
2014-Dec-07 22:30N 37°24' W 123°14'1111.4
2014-Dec-07 21:33N 37°33' W 123°06'1211.5
2014-Dec-07 20:33N 37°39' W 122°54'1111.4
2014-Dec-07 19:33N 37°46' W 122°42'9 9.5
2014-Dec-07 18:33N 37°48' W 122°31'7 7.0
2014-Dec-07 17:34N 37°48' W 122°22'3 2.9
2014-Dec-07 16:33N 37°45' W 122°21'0 0.0
2014-Dec-07 15:33N 37°45' W 122°21'0 0.2
2014-Dec-07 14:33N 37°45' W 122°21'0 0.1
2014-Dec-07 13:30N 37°45' W 122°21'0 0.0
2014-Dec-07 12:33N 37°45' W 122°21'0 0.0
2014-Dec-07 11:33N 37°45' W 122°21'0 0.0
2014-Dec-07 10:33N 37°45' W 122°21'0 0.1
2014-Dec-07 09:33N 37°45' W 122°21'9 8.9
2014-Dec-07 08:33N 37°54' W 122°25'8 7.6
2014-Dec-07 07:33N 38°01' W 122°24'7 6.7
2014-Dec-07 06:33N 38°03' W 122°16'0 0.0
2014-Dec-07 05:32N 38°03' W 122°16'0 0.0
2014-Dec-07 04:20N 38°03' W 122°16'0 0.0
2014-Dec-07 03:23N 38°03' W 122°16'0 0.0
2014-Dec-07 02:05N 38°03' W 122°16'0 0.0
2014-Dec-07 01:17N 38°03' W 122°16'0 0.0
2014-Dec-06 21:29N 38°03' W 122°16'0 0.0
2014-Dec-06 20:11N 38°03' W 122°16'0 0.0
2014-Dec-06 18:29N 38°03' W 122°16'0 0.0
2014-Dec-06 17:29N 38°03' W 122°16'0 0.0
2014-Dec-06 16:29N 38°03' W 122°16'0 0.0
2014-Dec-06 15:29N 38°03' W 122°16'0 0.0
2014-Dec-06 14:29N 38°03' W 122°16'0 0.0
2014-Dec-06 13:29N 38°03' W 122°16'0 0.0
2014-Dec-06 12:29N 38°03' W 122°16'0 0.0
2014-Dec-06 10:29N 38°03' W 122°16'0 0.0
2014-Dec-06 08:23N 38°03' W 122°16'0 0.0
2014-Dec-06 07:05N 38°03' W 122°16'0 0.0
2014-Dec-06 06:23N 38°03' W 122°16'0 0.0
2014-Dec-06 05:23N 38°03' W 122°16'0 0.0
2014-Dec-06 04:17N 38°03' W 122°16'0 0.0
2014-Dec-06 03:17N 38°03' W 122°16'0 0.0
2014-Dec-06 02:05N 38°03' W 122°16'0 0.0
2014-Dec-06 00:17N 38°03' W 122°16'0 0.0
2014-Dec-05 17:11N 38°03' W 122°16'0 0.0
2014-Dec-05 16:29N 38°03' W 122°16'0 0.0
2014-Dec-05 15:23N 38°03' W 122°16'0 0.0
2014-Dec-05 14:29N 38°03' W 122°16'0 0.0
2014-Dec-05 11:11N 38°03' W 122°16'0 0.0
2014-Dec-05 10:23N 38°03' W 122°16'0 0.0
2014-Dec-05 09:23N 38°03' W 122°16'0 0.0
2014-Dec-05 08:29N 38°03' W 122°16'0 0.0
2014-Dec-05 06:23N 38°03' W 122°16'0 0.0
2014-Dec-05 05:29N 38°03' W 122°16'0 0.0
2014-Dec-05 04:23N 38°03' W 122°16'0 0.0
2014-Dec-05 03:29N 38°03' W 122°16'0 0.0
2014-Dec-05 02:23N 38°03' W 122°16'0 0.0
2014-Dec-05 01:29N 38°03' W 122°16'0 0.0
2014-Dec-05 00:29N 38°03' W 122°16'0 0.0
2014-Dec-04 23:29N 38°03' W 122°16'0 0.0
2014-Dec-04 22:29N 38°03' W 122°16'0 0.0
2014-Dec-04 21:29N 38°03' W 122°16'0 0.0
2014-Dec-04 19:11N 38°03' W 122°16'0 0.0
2014-Dec-04 18:29N 38°03' W 122°16'0 0.0
2014-Dec-04 17:23N 38°03' W 122°16'0 0.0
2014-Dec-04 16:23N 38°03' W 122°16'0 0.0
2014-Dec-04 15:23N 38°03' W 122°16'0 0.0
2014-Dec-04 14:29N 38°03' W 122°16'0 0.0
2014-Dec-04 13:29N 38°03' W 122°16'0 0.0
2014-Dec-04 12:29N 38°03' W 122°16'0 0.0
2014-Dec-04 11:29N 38°03' W 122°16'0 0.0
2014-Dec-04 10:29N 38°03' W 122°16'0 0.0
2014-Dec-04 09:29N 38°03' W 122°16'0 0.0
2014-Dec-04 08:29N 38°03' W 122°16'0 0.0
2014-Dec-04 07:17N 38°03' W 122°16'0 0.0
2014-Dec-04 06:23N 38°03' W 122°16'1 0.8
2014-Dec-04 05:33N 38°04' W 122°17'1010.2
2014-Dec-04 04:34N 37°58' W 122°27'1111.4
2014-Dec-04 03:33N 37°47' W 122°22'2 1.5
2014-Dec-04 02:31N 37°46' W 122°21'0 0.1
2014-Dec-04 01:31N 37°46' W 122°21'0 0.1
2014-Dec-04 00:31N 37°46' W 122°21'0 0.1
2014-Dec-03 23:29N 37°46' W 122°21'0 0.0
2014-Dec-03 22:31N 37°46' W 122°21'0 0.0
2014-Dec-03 21:31N 37°46' W 122°21'0 0.0
2014-Dec-03 20:31N 37°46' W 122°21'0 0.0
2014-Dec-03 19:31N 37°46' W 122°21'0 0.0
2014-Dec-03 18:29N 37°46' W 122°21'0 0.1
2014-Dec-03 17:31N 37°46' W 122°21'0 0.2
2014-Dec-03 16:31N 37°46' W 122°21'0 0.1
2014-Dec-03 15:31N 37°46' W 122°21'0 0.0
2014-Dec-03 14:29N 37°46' W 122°21'0 0.0
2014-Dec-03 13:31N 37°46' W 122°21'0 0.2
2014-Dec-03 12:31N 37°46' W 122°21'0 0.0
2014-Dec-03 11:31N 37°46' W 122°21'0 0.1
2014-Dec-03 10:31N 37°46' W 122°21'0 0.0
2014-Dec-03 09:31N 37°46' W 122°21'0 0.0
2014-Dec-03 08:31N 37°46' W 122°21'0 0.0
2014-Dec-03 07:31N 37°46' W 122°21'0 0.0
2014-Dec-03 06:31N 37°46' W 122°21'0 0.1
2014-Dec-03 05:31N 37°46' W 122°21'0 0.1
2014-Dec-03 04:31N 37°46' W 122°21'0 0.0
2014-Dec-03 03:31N 37°46' W 122°21'0 0.0
2014-Dec-03 02:31N 37°46' W 122°21'0 0.1
2014-Dec-03 01:31N 37°46' W 122°21'0 0.2
2014-Dec-03 00:31N 37°46' W 122°21'0 0.1
2014-Dec-02 23:31N 37°46' W 122°21'0 0.0
2014-Dec-02 22:31N 37°46' W 122°21'0 0.0
2014-Dec-02 21:31N 37°46' W 122°21'0 0.0
2014-Dec-02 20:31N 37°46' W 122°21'0 0.1
2014-Dec-02 19:33N 37°46' W 122°21'7 7.4
2014-Dec-02 18:33N 37°49' W 122°30'10 9.9
2014-Dec-02 17:33N 37°45' W 122°41'9 9.0
2014-Dec-02 16:33N 37°39' W 122°50'9 8.6
2014-Dec-02 15:33N 37°35' W 122°59'10 9.5
2014-Dec-02 14:33N 37°28' W 123°08'8910.6
2014-Dec-02 06:12N 36°06' W 123°48'1212.5
2014-Dec-02 05:12N 35°54' W 123°52'4611.9
2014-Dec-02 01:19N 35°08' W 124°04'11 9.8
2014-Dec-02 00:13N 34°59' W 123°58'812.1
2014-Dec-01 23:32N 34°52' W 123°54'53811.2
2014-Nov-29 23:33N 27°27' W 117°59'13311.7
2014-Nov-29 12:08N 26°09' W 115°57'711.6
2014-Nov-29 11:33N 26°05' W 115°51'  
Track history (hours):
 
Tides and Currents Weather Stations Pressure Air Temp Water Temp Dewpoint Dewpoint Depression Visibility Wind Speed Wind Dir Waves Ship Positions

Nina

Last reported at 2014-Dec-07 22:30 UTC. Time now 2014-Dec-18 12:33 UTC.
Position N 37°24' W 123°14'.
Warning: this ship's position is 10 days out of date.

Length 180 m; draft 10.6 m.

Type: Tanker. MMSI: 247239700.

Date/timePositionNaut miles runAvg speedWind from/ knotsBaromVisibWave heightAir tempDewpointWater temp
2014-Dec-07 22:30N 37°24' W 123°14'1111.4
2014-Dec-07 21:33N 37°33' W 123°06'1211.5
2014-Dec-07 20:33N 37°39' W 122°54'1111.4
2014-Dec-07 19:33N 37°46' W 122°42'9 9.5
2014-Dec-07 18:33N 37°48' W 122°31'7 7.0
2014-Dec-07 17:34N 37°48' W 122°22'3 2.9
2014-Dec-07 16:33N 37°45' W 122°21'0 0.0
2014-Dec-07 15:33N 37°45' W 122°21'0 0.2
2014-Dec-07 14:33N 37°45' W 122°21'0 0.1
2014-Dec-07 13:30N 37°45' W 122°21'0 0.0
2014-Dec-07 12:33N 37°45' W 122°21'0 0.0
2014-Dec-07 11:33N 37°45' W 122°21'0 0.0
2014-Dec-07 10:33N 37°45' W 122°21'0 0.1
2014-Dec-07 09:33N 37°45' W 122°21'9 8.9
2014-Dec-07 08:33N 37°54' W 122°25'8 7.6
2014-Dec-07 07:33N 38°01' W 122°24'7 6.7
2014-Dec-07 06:33N 38°03' W 122°16'0 0.0
2014-Dec-07 05:32N 38°03' W 122°16'0 0.0
2014-Dec-07 04:20N 38°03' W 122°16'0 0.0
2014-Dec-07 03:23N 38°03' W 122°16'0 0.0
2014-Dec-07 02:05N 38°03' W 122°16'0 0.0
2014-Dec-07 01:17N 38°03' W 122°16'0 0.0
2014-Dec-06 21:29N 38°03' W 122°16'0 0.0
2014-Dec-06 20:11N 38°03' W 122°16'0 0.0
2014-Dec-06 18:29N 38°03' W 122°16'0 0.0
2014-Dec-06 17:29N 38°03' W 122°16'0 0.0
2014-Dec-06 16:29N 38°03' W 122°16'0 0.0
2014-Dec-06 15:29N 38°03' W 122°16'0 0.0
2014-Dec-06 14:29N 38°03' W 122°16'0 0.0
2014-Dec-06 13:29N 38°03' W 122°16'0 0.0
2014-Dec-06 12:29N 38°03' W 122°16'0 0.0
2014-Dec-06 10:29N 38°03' W 122°16'0 0.0
2014-Dec-06 08:23N 38°03' W 122°16'0 0.0
2014-Dec-06 07:05N 38°03' W 122°16'0 0.0
2014-Dec-06 06:23N 38°03' W 122°16'0 0.0
2014-Dec-06 05:23N 38°03' W 122°16'0 0.0
2014-Dec-06 04:17N 38°03' W 122°16'0 0.0
2014-Dec-06 03:17N 38°03' W 122°16'0 0.0
2014-Dec-06 02:05N 38°03' W 122°16'0 0.0
2014-Dec-06 00:17N 38°03' W 122°16'0 0.0
2014-Dec-05 17:11N 38°03' W 122°16'0 0.0
2014-Dec-05 16:29N 38°03' W 122°16'0 0.0
2014-Dec-05 15:23N 38°03' W 122°16'0 0.0
2014-Dec-05 14:29N 38°03' W 122°16'0 0.0
2014-Dec-05 11:11N 38°03' W 122°16'0 0.0
2014-Dec-05 10:23N 38°03' W 122°16'0 0.0
2014-Dec-05 09:23N 38°03' W 122°16'0 0.0
2014-Dec-05 08:29N 38°03' W 122°16'0 0.0
2014-Dec-05 06:23N 38°03' W 122°16'0 0.0
2014-Dec-05 05:29N 38°03' W 122°16'0 0.0
2014-Dec-05 04:23N 38°03' W 122°16'0 0.0
2014-Dec-05 03:29N 38°03' W 122°16'0 0.0
2014-Dec-05 02:23N 38°03' W 122°16'0 0.0
2014-Dec-05 01:29N 38°03' W 122°16'0 0.0
2014-Dec-05 00:29N 38°03' W 122°16'0 0.0
2014-Dec-04 23:29N 38°03' W 122°16'0 0.0
2014-Dec-04 22:29N 38°03' W 122°16'0 0.0
2014-Dec-04 21:29N 38°03' W 122°16'0 0.0
2014-Dec-04 19:11N 38°03' W 122°16'0 0.0
2014-Dec-04 18:29N 38°03' W 122°16'0 0.0
2014-Dec-04 17:23N 38°03' W 122°16'0 0.0
2014-Dec-04 16:23N 38°03' W 122°16'0 0.0
2014-Dec-04 15:23N 38°03' W 122°16'0 0.0
2014-Dec-04 14:29N 38°03' W 122°16'0 0.0
2014-Dec-04 13:29N 38°03' W 122°16'0 0.0
2014-Dec-04 12:29N 38°03' W 122°16'0 0.0
2014-Dec-04 11:29N 38°03' W 122°16'0 0.0
2014-Dec-04 10:29N 38°03' W 122°16'0 0.0
2014-Dec-04 09:29N 38°03' W 122°16'0 0.0
2014-Dec-04 08:29N 38°03' W 122°16'0 0.0
2014-Dec-04 07:17N 38°03' W 122°16'0 0.0
2014-Dec-04 06:23N 38°03' W 122°16'1 0.8
2014-Dec-04 05:33N 38°04' W 122°17'1010.2
2014-Dec-04 04:34N 37°58' W 122°27'1111.4
2014-Dec-04 03:33N 37°47' W 122°22'2 1.5
2014-Dec-04 02:31N 37°46' W 122°21'0 0.1
2014-Dec-04 01:31N 37°46' W 122°21'0 0.1
2014-Dec-04 00:31N 37°46' W 122°21'0 0.1
2014-Dec-03 23:29N 37°46' W 122°21'0 0.0
2014-Dec-03 22:31N 37°46' W 122°21'0 0.0
2014-Dec-03 21:31N 37°46' W 122°21'0 0.0
2014-Dec-03 20:31N 37°46' W 122°21'0 0.0
2014-Dec-03 19:31N 37°46' W 122°21'0 0.0
2014-Dec-03 18:29N 37°46' W 122°21'0 0.1
2014-Dec-03 17:31N 37°46' W 122°21'0 0.2
2014-Dec-03 16:31N 37°46' W 122°21'0 0.1
2014-Dec-03 15:31N 37°46' W 122°21'0 0.0
2014-Dec-03 14:29N 37°46' W 122°21'0 0.0
2014-Dec-03 13:31N 37°46' W 122°21'0 0.2
2014-Dec-03 12:31N 37°46' W 122°21'0 0.0
2014-Dec-03 11:31N 37°46' W 122°21'0 0.1
2014-Dec-03 10:31N 37°46' W 122°21'0 0.0
2014-Dec-03 09:31N 37°46' W 122°21'0 0.0
2014-Dec-03 08:31N 37°46' W 122°21'0 0.0
2014-Dec-03 07:31N 37°46' W 122°21'0 0.0
2014-Dec-03 06:31N 37°46' W 122°21'0 0.1
2014-Dec-03 05:31N 37°46' W 122°21'0 0.1
2014-Dec-03 04:31N 37°46' W 122°21'0 0.0
2014-Dec-03 03:31N 37°46' W 122°21'0 0.0
2014-Dec-03 02:31N 37°46' W 122°21'0 0.1
2014-Dec-03 01:31N 37°46' W 122°21'0 0.2
2014-Dec-03 00:31N 37°46' W 122°21'0 0.1
2014-Dec-02 23:31N 37°46' W 122°21'0 0.0
2014-Dec-02 22:31N 37°46' W 122°21'0 0.0
2014-Dec-02 21:31N 37°46' W 122°21'0 0.0
2014-Dec-02 20:31N 37°46' W 122°21'0 0.1
2014-Dec-02 19:33N 37°46' W 122°21'7 7.4
2014-Dec-02 18:33N 37°49' W 122°30'10 9.9
2014-Dec-02 17:33N 37°45' W 122°41'9 9.0
2014-Dec-02 16:33N 37°39' W 122°50'9 8.6
2014-Dec-02 15:33N 37°35' W 122°59'10 9.5
2014-Dec-02 14:33N 37°28' W 123°08'8910.6
2014-Dec-02 06:12N 36°06' W 123°48'1212.5
2014-Dec-02 05:12N 35°54' W 123°52'4611.9
2014-Dec-02 01:19N 35°08' W 124°04'11 9.8
2014-Dec-02 00:13N 34°59' W 123°58'812.1
2014-Dec-01 23:32N 34°52' W 123°54'53811.2
2014-Nov-29 23:33N 27°27' W 117°59'13311.7
2014-Nov-29 12:08N 26°09' W 115°57'711.6
2014-Nov-29 11:33N 26°05' W 115°51'  

Dump ship's entire track history